Погода Куиксерамобинна неделю

Сеара, Бразилия

15 - 21 июля
  • 15июля
    Сегодня
    +19°
    +31°
    Облачно с прояснениями
    ВремяПогодаТемператураВлажностьДавлениеВетер, м/сВероятность осадков
    00:00Практически безоблачно+25°C68 %745 мм4.4 м/с4 %
    03:00Небольшая облачность+23°C79 %745 мм3.7 м/с5 %
    06:00Небольшая облачность+22°C82 %746 мм3.2 м/с7 %
    09:00Ясно и безоблачно+25°C65 %747 мм4.8 м/с5 %
    12:00Ясно и безоблачно+29°C47 %746 мм6.3 м/с5 %
    15:00Облачно с прояснениями+30°C41 %744 мм5.4 м/с5 %
    18:00Практически безоблачно+27°C59 %744 мм2.1 м/с5 %
    21:00Облачно с прояснениями+25°C56 %745 мм3.3 м/с5 %
  • 16июля
    Вторник
    +20°
    +31°
    Ясно и безоблачно
    ВремяПогодаТемператураВлажностьДавлениеВетер, м/сВероятность осадков
    00:00Ясно и безоблачно+23°C63 %746 мм3.0 м/с5 %
    03:00Ясно и безоблачно+21°C71 %745 мм2.9 м/с4 %
    06:00Ясно и безоблачно+19°C82 %746 мм2.2 м/с5 %
    09:00Ясно и безоблачно+25°C62 %747 мм4.8 м/с5 %
    12:00Ясно и безоблачно+29°C44 %746 мм5.3 м/с5 %
    15:00Ясно и безоблачно+31°C36 %744 мм4.7 м/с5 %
    18:00Ясно и безоблачно+26°C55 %744 мм2.4 м/с5 %
    21:00Практически безоблачно+25°C58 %746 мм3.5 м/с5 %
  • 17июля
    Среда
    +20°
    +31°
    Ясно и безоблачно
    ВремяПогодаТемператураВлажностьДавлениеВетер, м/сВероятность осадков
    00:00Практически безоблачно+22°C83 %746 мм2.9 м/с7 %
    03:00Облачно с прояснениями+22°C91 %745 мм1.6 м/с16 %
    06:00Ясно и безоблачно+21°C85 %746 мм2.2 м/с10 %
    09:00Облачно с прояснениями+26°C64 %747 мм4.9 м/с6 %
    12:00Небольшая облачность+29°C48 %746 мм5.2 м/с5 %
    15:00Ясно и безоблачно+31°C40 %743 мм4.5 м/с5 %
    18:00Ясно и безоблачно+27°C54 %744 мм1.8 м/с5 %
    21:00Ясно и безоблачно+25°C61 %745 мм3.1 м/с6 %
  • 18июля
    Четверг
    +20°
    +31°
    Практически безоблачно
    ВремяПогодаТемператураВлажностьДавлениеВетер, м/сВероятность осадков
    00:00Ясно и безоблачно+22°C90 %745 мм2.9 м/с27 %
    03:00Ясно и безоблачно+21°C95 %744 мм1.3 м/с19 %
    06:00Ясно и безоблачно+20°C92 %745 мм1.8 м/с9 %
    09:00Ясно и безоблачно+26°C66 %746 мм4.2 м/с4 %
    12:00Практически безоблачно+29°C47 %745 мм4.7 м/с4 %
    15:00Практически безоблачно+30°C41 %743 мм3.2 м/с6 %
    18:00Практически безоблачно+28°C54 %744 мм0.3 м/с5 %
    21:00Ясно и безоблачно+25°C64 %745 мм3.0 м/с12 %
  • 19июля
    Пятница
    +21°
    +31°
    Ясно и безоблачно
    ВремяПогодаТемператураВлажностьДавлениеВетер, м/сВероятность осадков
    00:00Ясно и безоблачно+23°C85 %746 мм2.7 м/с43 %
    03:00Ясно и безоблачно+22°C94 %745 мм1.1 м/с46 %
    06:00Ясно и безоблачно+21°C92 %745 мм2.2 м/с10 %
    09:00Ясно и безоблачно+26°C65 %747 мм4.3 м/с7 %
    12:00Ясно и безоблачно+30°C47 %745 мм4.8 м/с7 %
    15:00Ясно и безоблачно+31°C39 %743 мм3.6 м/с5 %
    18:00Ясно и безоблачно+27°C56 %744 мм1.9 м/с5 %
    21:00Облачно с прояснениями+26°C54 %745 мм3.6 м/с16 %
Мы используем cookies
Соглашаюсь